createdAt,value
2023-04-20T16:12:12.869Z,12.60
2023-04-20T16:17:17.206Z,12.60
2023-04-20T16:22:21.253Z,12.70
2023-04-20T16:27:27.471Z,12.90
2023-04-20T16:32:31.754Z,13.10
2023-04-20T16:37:36.253Z,13.50
2023-04-20T16:42:42.400Z,13.70
2023-04-20T16:47:46.578Z,13.90
2023-04-20T16:52:50.784Z,13.70
2023-04-20T16:57:59.738Z,13.60
2023-04-20T17:03:06.298Z,13.40
2023-04-20T17:08:10.610Z,13.10
2023-04-20T17:13:16.989Z,12.70
2023-04-20T17:18:21.351Z,12.60
2023-04-20T17:23:25.882Z,12.30
2023-04-20T17:28:32.176Z,12.00
2023-04-20T17:33:36.317Z,11.70
2023-04-20T17:38:40.295Z,11.50
2023-04-20T17:43:46.273Z,11.40
2023-04-20T17:48:50.445Z,11.30
2023-04-20T17:53:54.578Z,11.30
2023-04-20T17:59:00.710Z,11.20
2023-04-20T18:04:05.066Z,11.20
2023-04-20T18:09:09.700Z,10.90
2023-04-20T18:14:15.842Z,10.70
2023-04-20T18:19:19.903Z,10.50
2023-04-20T18:24:24.170Z,10.30
2023-04-20T18:29:30.802Z,10.20
2023-04-20T18:34:34.910Z,10.20
2023-04-20T18:39:39.170Z,10.20
2023-04-20T18:44:45.431Z,10.10
2023-04-20T18:49:49.530Z,10.10
2023-04-20T18:54:54.876Z,10.00
2023-04-20T19:00:01.157Z,10.00
2023-04-20T19:05:05.599Z,10.00
2023-04-20T19:10:11.752Z,9.90
2023-04-20T19:15:24.739Z,9.90
2023-04-20T19:20:29.070Z,9.80
2023-04-20T19:25:33.595Z,9.80
2023-04-20T19:30:39.774Z,9.70
2023-04-20T19:35:49.922Z,9.80
2023-04-20T19:40:54.782Z,9.70
2023-04-20T19:46:00.927Z,9.80
2023-04-20T19:51:06.269Z,9.80
2023-04-20T19:56:10.737Z,9.80
2023-04-20T20:01:16.868Z,9.70
2023-04-20T20:06:21.251Z,9.70
2023-04-20T20:11:25.279Z,9.70
2023-04-20T20:16:31.337Z,9.60
2023-04-20T20:21:35.469Z,9.60
2023-04-20T20:26:39.523Z,9.60
2023-04-20T20:31:45.667Z,9.60
2023-04-20T20:36:50.868Z,9.60
2023-04-20T20:41:56.702Z,9.60
2023-04-20T20:47:03.004Z,9.50
2023-04-20T20:52:07.936Z,9.40
2023-04-20T20:57:12.455Z,9.30
2023-04-20T21:02:19.051Z,9.20
2023-04-20T21:07:23.400Z,9.00
2023-04-20T21:12:27.558Z,8.80
